Time;durP1;ratioP1;P1;durP2;ratioP2;P2;SDS_P1;SDS_P2;PMS_P1;PMS_P2;Temp;Humidity;BMP_temperature;BMP_pressure;BME280_temperature;BME280_humidity;BME280_pressure;Samples;Min_cycle;Max_cycle;Signal;HPM_P1;HPM_P2
2022/05/15 00:02:55;;;;;;;5.38;1.70;;;;;;;21.20;36.18;101913.81;16143033;19;130092;-42
2022/05/15 00:08:16;;;;;;;5.45;1.70;;;;;;;21.19;36.14;101900.16;16144377;19;130057;-46
2022/05/15 00:13:39;;;;;;;8.07;1.90;;;;;;;21.18;36.62;101898.47;16141643;19;130334;-42
2022/05/15 00:19:02;;;;;;;9.45;2.00;;;;;;;21.15;36.28;101899.78;16135444;19;130335;-45
2022/05/15 00:24:24;;;;;;;4.53;2.00;;;;;;;21.14;36.58;101889.75;16140453;19;129894;-44
2022/05/15 00:29:46;;;;;;;7.60;1.90;;;;;;;21.13;36.13;101890.84;16141214;19;129629;-44
2022/05/15 00:35:08;;;;;;;7.47;1.90;;;;;;;21.13;36.45;101878.84;16137462;19;130174;-45
2022/05/15 00:40:31;;;;;;;6.72;1.75;;;;;;;21.12;36.17;101888.28;16141537;19;133271;-42
2022/05/15 00:45:52;;;;;;;5.50;2.00;;;;;;;21.10;35.95;101885.75;16141231;19;129534;-43
2022/05/15 00:51:19;;;;;;;6.00;1.80;;;;;;;21.09;35.93;101894.34;16139841;19;130757;-43
2022/05/15 00:56:48;;;;;;;5.65;1.80;;;;;;;21.08;35.86;101893.47;16135584;19;129888;-45
2022/05/15 01:02:10;;;;;;;5.97;1.83;;;;;;;21.07;35.83;101886.22;16135945;19;129873;-47
2022/05/15 01:07:32;;;;;;;5.18;1.80;;;;;;;21.05;35.99;101891.16;16139163;19;129339;-46
2022/05/15 01:12:58;;;;;;;3.95;1.63;;;;;;;21.05;36.22;101903.16;16134462;19;129451;-44
2022/05/15 01:18:21;;;;;;;4.72;1.80;;;;;;;21.03;36.19;101896.16;16131754;19;129762;-42
2022/05/15 01:23:43;;;;;;;5.25;1.85;;;;;;;21.02;35.82;101897.22;16136860;19;129872;-45
2022/05/15 01:29:06;;;;;;;4.43;1.85;;;;;;;21.03;35.99;101893.38;16133724;19;130527;-43
2022/05/15 01:34:28;;;;;;;4.55;1.70;;;;;;;21.01;36.10;101892.75;16135517;19;129567;-43
2022/05/15 01:39:49;;;;;;;4.13;1.48;;;;;;;21.00;35.89;101885.50;16130725;19;130157;-43
2022/05/15 01:45:14;;;;;;;5.78;1.77;;;;;;;20.99;35.75;101872.66;16135872;19;129687;-44
2022/05/15 01:50:35;;;;;;;4.05;1.45;;;;;;;20.98;35.66;101868.19;16140313;19;129866;-46
2022/05/15 01:55:57;;;;;;;3.75;1.60;;;;;;;20.96;35.95;101867.56;16135015;19;131396;-44
2022/05/15 02:01:19;;;;;;;5.93;1.85;;;;;;;20.95;35.85;101863.97;16135166;19;130602;-44
2022/05/15 02:06:41;;;;;;;7.75;2.10;;;;;;;20.94;35.47;101861.41;16133069;19;129719;-46
2022/05/15 02:12:03;;;;;;;5.50;1.73;;;;;;;20.93;35.94;101859.69;16129019;19;130829;-45
2022/05/15 02:17:25;;;;;;;5.55;1.98;;;;;;;20.92;35.83;101863.59;16128694;19;129514;-43
2022/05/15 02:22:47;;;;;;;7.00;1.80;;;;;;;20.90;35.46;101853.56;16130965;19;131023;-48
2022/05/15 02:28:09;;;;;;;7.78;2.15;;;;;;;20.89;35.57;101851.84;16131782;19;130424;-44
2022/05/15 02:33:31;;;;;;;5.55;1.95;;;;;;;20.88;35.94;101849.28;16126088;19;130803;-42
2022/05/15 02:38:54;;;;;;;6.10;1.90;;;;;;;20.87;35.57;101854.03;16129522;19;130201;-45
2022/05/15 02:44:15;;;;;;;5.82;1.52;;;;;;;20.86;35.60;101849.53;16131214;19;130809;-42
2022/05/15 02:55:17;;;;;;;6.63;1.85;;;;;;;20.86;35.36;101841.19;16131213;19;130203;-42
2022/05/15 03:00:39;;;;;;;3.97;1.63;;;;;;;20.84;35.38;101840.59;16131736;19;130278;-44
2022/05/15 03:06:03;;;;;;;5.63;1.88;;;;;;;20.85;35.55;101842.28;16130474;19;130456;-45
2022/05/15 03:11:25;;;;;;;5.53;1.65;;;;;;;20.83;35.59;101840.84;16127289;19;130105;-47
2022/05/15 03:16:47;;;;;;;6.22;1.90;;;;;;;20.83;35.31;101844.44;16127671;19;130593;-44
2022/05/15 03:22:09;;;;;;;4.05;1.65;;;;;;;20.82;35.33;101841.91;16126855;19;130697;-42
2022/05/15 03:27:30;;;;;;;4.47;1.40;;;;;;;20.81;35.77;101843.84;16146812;19;129482;-43
2022/05/15 03:32:52;;;;;;;3.67;1.40;;;;;;;20.81;35.34;101843.00;16143112;19;129878;-45
2022/05/15 03:38:14;;;;;;;4.18;1.60;;;;;;;20.80;35.75;101842.13;16140330;19;130602;-43
2022/05/15 03:43:36;;;;;;;8.73;1.88;;;;;;;20.80;35.36;101827.41;16142716;19;129875;-43
2022/05/15 03:48:58;;;;;;;6.00;2.03;;;;;;;20.77;35.50;101831.53;16142513;19;130229;-44
2022/05/15 03:54:20;;;;;;;3.85;1.58;;;;;;;20.78;35.80;101827.66;16142555;19;130134;-43
2022/05/15 03:59:42;;;;;;;3.72;1.33;;;;;;;20.78;35.21;101838.78;16138176;19;130512;-45
2022/05/15 04:05:06;;;;;;;4.40;1.40;;;;;;;20.76;35.46;101827.03;16143688;19;129752;-45
2022/05/15 04:10:30;;;;;;;6.43;1.77;;;;;;;20.76;35.52;101829.81;16141415;19;129932;-43
2022/05/15 04:15:51;;;;;;;4.18;1.40;;;;;;;20.75;35.53;101828.97;16138306;19;129209;-42
2022/05/15 04:21:13;;;;;;;5.95;1.90;;;;;;;20.75;35.50;101830.88;16140856;19;129606;-42
2022/05/15 04:26:36;;;;;;;2.60;1.30;;;;;;;20.73;35.79;101827.47;16139367;19;129740;-43
2022/05/15 04:31:58;;;;;;;3.70;1.20;;;;;;;20.74;35.31;101831.97;16134241;19;129825;-43
2022/05/15 04:37:19;;;;;;;3.78;1.23;;;;;;;20.72;35.67;101829.44;16134489;19;130073;-43
2022/05/15 04:42:41;;;;;;;4.43;1.30;;;;;;;20.72;35.71;101836.91;16139443;19;130200;-42
2022/05/15 04:48:04;;;;;;;4.32;1.23;;;;;;;20.72;35.52;101836.91;16139139;19;130477;-44
2022/05/15 04:53:27;;;;;;;4.05;1.30;;;;;;;20.72;35.41;101835.00;16135674;19;130716;-43
2022/05/15 04:58:49;;;;;;;2.78;0.93;;;;;;;20.71;35.80;101838.00;16134140;19;130595;-41
2022/05/15 05:04:10;;;;;;;4.28;1.38;;;;;;;20.71;35.51;101827.72;16136553;19;130559;-42
2022/05/15 05:09:32;;;;;;;4.95;1.70;;;;;;;20.71;35.69;101838.00;16133982;19;130007;-47
2022/05/15 05:14:54;;;;;;;2.55;1.25;;;;;;;20.70;35.35;101833.50;16131453;19;130209;-42
2022/05/15 05:20:16;;;;;;;3.72;1.08;;;;;;;20.70;35.31;101836.28;16131368;19;129303;-43
2022/05/15 05:25:39;;;;;;;2.75;1.30;;;;;;;20.70;35.62;101837.16;16137137;19;130849;-43
2022/05/15 05:31:01;;;;;;;3.95;1.20;;;;;;;20.69;35.46;101832.69;16135891;19;130441;-45
2022/05/15 05:36:23;;;;;;;3.45;0.95;;;;;;;20.69;35.37;101834.59;16131100;19;129792;-45
2022/05/15 05:41:45;;;;;;;1.70;0.90;;;;;;;20.69;35.28;101837.38;16131544;19;130082;-43
2022/05/15 05:47:06;;;;;;;2.38;0.82;;;;;;;20.69;35.37;101838.25;16131762;19;129541;-42
2022/05/15 05:52:28;;;;;;;2.47;1.00;;;;;;;20.69;35.60;101832.69;16135076;19;130636;-47
2022/05/15 05:57:51;;;;;;;1.70;0.93;;;;;;;20.69;35.79;101821.56;16131823;19;129409;-45
2022/05/15 06:08:53;;;;;;;2.30;0.90;;;;;;;20.68;35.59;101833.75;16134121;19;129643;-43
2022/05/15 06:14:14;;;;;;;2.45;1.17;;;;;;;20.69;35.69;101841.03;16132358;19;130488;-44
2022/05/15 06:19:37;;;;;;;5.03;1.02;;;;;;;20.69;35.42;101845.72;16127605;19;130202;-44
2022/05/15 06:24:59;;;;;;;2.90;0.90;;;;;;;20.69;35.76;101851.28;16132758;19;129427;-45
2022/05/15 06:30:20;;;;;;;2.08;1.00;;;;;;;20.69;35.73;101852.13;16131702;19;130187;-42
2022/05/15 06:35:43;;;;;;;4.70;1.10;;;;;;;20.68;35.50;101849.56;16131846;19;129679;-46
2022/05/15 06:41:09;;;;;;;3.30;0.90;;;;;;;20.70;35.83;101847.41;16127373;19;130483;-45
2022/05/15 06:46:32;;;;;;;2.30;0.77;;;;;;;20.69;35.71;101845.72;16131005;19;129781;-43
2022/05/15 06:51:53;;;;;;;1.45;0.82;;;;;;;20.69;35.70;101845.72;16132053;19;130226;-45
2022/05/15 06:57:31;;;;;;;5.20;1.00;;;;;;;20.69;35.46;101841.03;16129544;19;129161;-42
2022/05/15 07:02:53;;;;;;;4.97;1.25;;;;;;;20.69;35.63;101831.81;16149044;19;130245;-43
2022/05/15 07:08:15;;;;;;;2.70;0.80;;;;;;;20.69;35.55;101841.03;16142006;19;130797;-46
2022/05/15 07:13:37;;;;;;;3.78;0.77;;;;;;;20.69;35.80;101832.69;16140164;19;131448;-42
2022/05/15 07:18:58;;;;;;;3.03;1.10;;;;;;;20.70;35.82;101830.72;16141884;19;130017;-45
2022/05/15 07:24:22;;;;;;;1.27;0.73;;;;;;;20.73;35.76;101824.69;16145115;19;130316;-44
2022/05/15 07:29:44;;;;;;;4.65;1.50;;;;;;;20.79;36.08;101818.22;16143669;19;130578;-44
2022/05/15 07:35:06;;;;;;;5.40;1.58;;;;;;;20.90;35.64;101824.88;16144886;19;129812;-43
2022/05/15 07:40:28;;;;;;;10.60;2.00;;;;;;;21.02;36.07;101828.50;16136476;19;129540;-44
2022/05/15 07:45:49;;;;;;;9.15;1.85;;;;;;;21.11;36.16;101825.41;16140175;19;130336;-47
2022/05/15 07:51:11;;;;;;;12.18;2.17;;;;;;;21.19;35.65;101814.72;16142775;19;129944;-47
2022/05/15 07:56:33;;;;;;;10.50;2.20;;;;;;;21.28;35.62;101812.44;16142310;19;129148;-45
2022/05/15 08:01:55;;;;;;;7.38;2.10;;;;;;;21.36;35.78;101800.91;16143671;19;130174;-44
2022/05/15 08:12:57;;;;;;;11.30;1.80;;;;;;;21.48;35.80;101787.00;16148478;19;129818;-46
2022/05/15 08:24:01;;;;;;;11.48;2.20;;;;;;;21.58;35.66;101769.69;16143278;19;128945;-42
2022/05/15 08:29:22;;;;;;;7.50;2.20;;;;;;;21.63;35.61;101771.75;16143644;19;130277;-44
2022/05/15 08:34:44;;;;;;;9.63;2.15;;;;;;;21.68;35.83;101774.63;16144820;19;128979;-43
2022/05/15 08:40:07;;;;;;;8.88;2.38;;;;;;;21.71;35.61;101757.41;16142001;19;128826;-42
2022/05/15 08:45:37;;;;;;;8.65;2.33;;;;;;;21.77;35.29;101769.50;16144619;19;129517;-44
2022/05/15 08:51:01;;;;;;;14.63;4.10;;;;;;;21.79;35.63;101754.22;16144964;19;129722;-46
2022/05/15 08:56:23;;;;;;;14.03;5.40;;;;;;;21.82;35.51;101753.75;16145295;19;131165;-42
2022/05/15 09:01:46;;;;;;;16.58;4.80;;;;;;;21.87;35.42;101749.38;16139825;19;129227;-44
2022/05/15 09:07:46;;;;;;;13.68;4.30;;;;;;;21.93;35.18;101746.44;16145901;19;129511;-42
2022/05/15 09:13:24;;;;;;;12.02;3.90;;;;;;;21.96;35.28;101745.97;16144918;19;130025;-43
2022/05/15 09:18:46;;;;;;;9.27;3.25;;;;;;;22.00;34.87;101742.66;16141161;19;129454;-42
2022/05/15 09:24:42;;;;;;;13.10;3.58;;;;;;;22.05;34.75;101748.31;16143318;19;129574;-51
2022/05/15 09:30:10;;;;;;;11.15;2.83;;;;;;;22.05;34.56;101743.59;16144405;19;129746;-50
2022/05/15 09:35:38;;;;;;;125.65;20.15;;;;;;;22.07;34.59;101737.78;16142929;19;129373;-50
2022/05/15 09:47:14;;;;;;;56.75;8.35;;;;;;;22.11;34.14;101736.16;16142257;19;130489;-51
2022/05/15 09:52:40;;;;;;;50.97;7.90;;;;;;;22.11;33.55;101725.88;16141902;19;128890;-50
2022/05/15 09:58:06;;;;;;;49.92;6.90;;;;;;;22.12;33.72;101718.34;16141572;19;129905;-51
2022/05/15 10:03:32;;;;;;;35.25;6.32;;;;;;;22.13;33.71;101720.03;16139673;19;130195;-46
2022/05/15 10:09:10;;;;;;;26.73;4.97;;;;;;;22.14;33.42;101718.94;16139265;19;129336;-45
2022/05/15 10:14:41;;;;;;;26.40;4.65;;;;;;;22.13;33.36;101712.53;16138516;19;131590;-42
2022/05/15 10:20:09;;;;;;;22.25;3.95;;;;;;;22.13;33.45;101697.75;16137396;19;129494;-42
2022/05/15 10:25:34;;;;;;;18.95;3.65;;;;;;;22.12;32.99;101696.91;16140207;19;130202;-43
2022/05/15 10:31:39;;;;;;;15.20;3.15;;;;;;;22.15;33.35;101703.09;16139975;19;129717;-42
2022/05/15 10:37:19;;;;;;;12.45;2.45;;;;;;;22.16;32.75;101691.69;16136373;19;129058;-43
2022/05/15 10:42:49;;;;;;;15.07;2.42;;;;;;;22.16;32.82;101690.81;16137418;19;129596;-42
2022/05/15 10:48:25;;;;;;;12.35;2.45;;;;;;;22.19;32.55;101691.19;16135003;19;129067;-41
2022/05/15 10:59:54;;;;;;;6.85;1.90;;;;;;;22.21;32.71;101669.53;16134467;19;130640;-44
2022/05/15 11:05:57;;;;;;;7.00;2.05;;;;;;;22.21;32.99;101677.03;16136890;19;130241;-46
2022/05/15 11:11:42;;;;;;;13.35;2.00;;;;;;;22.24;32.95;101663.41;16127102;19;129922;-45
2022/05/15 11:17:15;;;;;;;9.43;2.03;;;;;;;22.26;32.46;101652.03;16123432;19;129778;-46
2022/05/15 11:22:43;;;;;;;10.45;2.53;;;;;;;22.25;32.88;101650.34;16127047;19;129624;-42
2022/05/15 11:28:13;;;;;;;6.65;1.63;;;;;;;22.26;32.60;101640.88;16125719;19;129134;-45
2022/05/15 11:33:43;;;;;;;5.18;1.55;;;;;;;22.28;32.44;101627.50;16124548;19;130397;-44
2022/05/15 11:39:14;;;;;;;12.25;2.13;;;;;;;22.30;32.41;101616.13;16120305;19;131348;-44
2022/05/15 11:44:42;;;;;;;9.15;2.15;;;;;;;22.30;32.43;101611.38;16136111;19;129943;-44
2022/05/15 11:50:12;;;;;;;15.85;2.13;;;;;;;22.34;32.48;101609.78;16150832;19;130636;-49
2022/05/15 11:55:37;;;;;;;6.93;1.77;;;;;;;22.34;32.54;101609.78;16146840;19;129337;-52
2022/05/15 12:01:13;;;;;;;8.77;1.87;;;;;;;22.34;32.69;101598.63;16141334;19;129728;-46
2022/05/15 12:06:57;;;;;;;18.67;2.53;;;;;;;22.37;32.71;101597.25;16143258;19;130947;-47
2022/05/15 12:12:27;;;;;;;9.80;1.60;;;;;;;22.38;32.52;101593.38;16141343;19;130553;-46
2022/05/15 12:17:49;;;;;;;13.02;2.10;;;;;;;22.39;32.24;101587.56;16137621;19;131692;-47
2022/05/15 12:23:20;;;;;;;19.10;2.30;;;;;;;22.42;32.65;101581.47;16136507;19;130413;-47
2022/05/15 12:29:02;;;;;;;14.63;1.95;;;;;;;22.42;32.22;101578.66;16144346;19;129760;-46
2022/05/15 12:34:31;;;;;;;9.63;2.00;;;;;;;22.40;32.30;101569.72;16144979;19;129566;-50
2022/05/15 12:39:55;;;;;;;11.20;1.90;;;;;;;22.41;32.45;101570.56;16143835;19;130298;-49
2022/05/15 12:45:21;;;;;;;11.90;2.30;;;;;;;22.43;32.23;101574.78;16145154;19;129057;-47
2022/05/15 12:51:09;;;;;;;6.75;2.28;;;;;;;22.46;32.22;101562.28;16146933;19;129767;-49
2022/05/15 12:56:35;;;;;;;6.80;2.38;;;;;;;22.48;32.00;101559.25;16139376;19;129139;-51
2022/05/15 13:01:57;;;;;;;6.28;1.80;;;;;;;22.49;32.20;101558.16;16139926;19;131701;-47
2022/05/15 13:07:24;;;;;;;7.72;1.98;;;;;;;22.53;32.20;101551.78;16143251;19;129346;-47
2022/05/15 13:12:54;;;;;;;7.45;2.05;;;;;;;22.53;31.93;101556.50;16144815;19;129466;-49
2022/05/15 13:18:16;;;;;;;10.63;2.13;;;;;;;22.53;31.68;101545.34;16138507;19;129257;-49
2022/05/15 13:23:45;;;;;;;5.97;2.00;;;;;;;22.53;31.81;101539.78;16143382;19;130872;-48
2022/05/15 13:29:10;;;;;;;7.28;1.55;;;;;;;22.51;31.51;101537.25;16138731;19;131202;-49
2022/05/15 13:34:34;;;;;;;5.78;1.67;;;;;;;22.50;31.08;101534.75;16139707;19;129487;-49
2022/05/15 13:46:09;;;;;;;;;;;;;;;22.48;30.51;101520.22;16140294;19;130569;-52
2022/05/15 13:51:39;;;;;;;;;;;;;;;22.48;30.31;101509.06;16140864;19;130783;-48
2022/05/15 13:57:01;;;;;;;10.95;1.90;;;;;;;22.49;30.89;101503.22;16135804;19;130022;-49
2022/05/15 14:02:29;;;;;;;9.55;2.15;;;;;;;22.51;30.86;101498.22;16134326;19;129616;-47
2022/05/15 14:07:52;;;;;;;8.23;1.63;;;;;;;22.51;31.05;101494.59;16139500;19;130717;-51
2022/05/15 14:13:16;;;;;;;5.53;1.85;;;;;;;22.52;30.86;101493.50;16135710;19;130327;-51
2022/05/15 14:18:38;;;;;;;7.97;1.90;;;;;;;22.53;30.79;101486.78;16132952;19;131197;-50
2022/05/15 14:24:00;;;;;;;5.78;1.80;;;;;;;22.52;30.39;101477.59;16138515;19;128865;-44
2022/05/15 14:29:22;;;;;;;10.15;1.90;;;;;;;22.53;30.93;101467.28;16135850;19;129445;-50
2022/05/15 14:34:44;;;;;;;9.77;1.80;;;;;;;22.53;31.03;101462.56;16137212;19;129516;-47
2022/05/15 14:40:06;;;;;;;8.50;1.75;;;;;;;22.55;30.69;101465.94;16134763;19;129421;-45
2022/05/15 14:45:29;;;;;;;5.07;1.65;;;;;;;22.58;30.48;101450.63;16136015;19;128900;-51
2022/05/15 14:50:54;;;;;;;3.83;1.30;;;;;;;22.59;30.38;101443.94;16136118;19;130649;-45
2022/05/15 14:56:16;;;;;;;3.93;1.30;;;;;;;22.58;30.27;101436.69;16135107;19;129687;-46
2022/05/15 15:01:40;;;;;;;11.32;1.40;;;;;;;22.59;30.42;101438.38;16132274;19;129704;-50
2022/05/15 15:07:04;;;;;;;6.75;1.88;;;;;;;22.59;30.82;101424.44;16135710;19;130008;-48
2022/05/15 15:12:26;;;;;;;30.85;11.82;;;;;;;22.60;31.17;101412.16;16134544;19;129973;-50
2022/05/15 15:17:47;;;;;;;34.20;17.92;;;;;;;22.60;30.87;101412.16;16131643;19;129310;-50
2022/05/15 15:23:09;;;;;;;27.15;13.23;;;;;;;22.53;31.32;101414.31;16144599;19;130048;-51
2022/05/15 15:28:31;;;;;;;32.30;13.43;;;;;;;22.53;31.16;101406.78;16152694;19;129766;-49
2022/05/15 15:33:57;;;;;;;35.92;14.88;;;;;;;22.54;31.11;101405.69;16149596;19;130550;-48
2022/05/15 15:39:18;;;;;;;;;;;;;;;22.47;31.22;101385.53;16149339;19;129783;-50
2022/05/15 15:44:41;;;;;;;32.05;11.40;;;;;;;22.45;31.36;101371.03;16149188;19;130875;-47
2022/05/15 15:50:05;;;;;;;23.95;10.73;;;;;;;22.41;31.21;101365.09;16142584;19;129771;-50
2022/05/15 15:55:28;;;;;;;26.52;10.65;;;;;;;22.38;31.87;101359.22;16147662;19;129104;-46
2022/05/15 16:00:50;;;;;;;23.45;8.90;;;;;;;22.35;31.82;101349.44;16146551;19;129126;-49
2022/05/15 16:06:12;;;;;;;20.67;8.60;;;;;;;22.36;31.91;101351.13;16148074;19;130293;-46
2022/05/15 16:11:49;;;;;;;16.05;7.07;;;;;;;22.35;31.85;101343.88;16143872;19;130053;-48
2022/05/15 16:17:31;;;;;;;17.90;7.03;;;;;;;22.34;31.79;101338.56;16142005;19;129925;-50
2022/05/15 16:22:53;;;;;;;12.98;4.95;;;;;;;22.34;32.27;101330.22;16139422;19;130387;-48
2022/05/15 16:28:18;;;;;;;8.10;3.97;;;;;;;22.41;31.93;101331.66;16145152;19;129187;-52
2022/05/15 16:33:43;;;;;;;8.38;2.83;;;;;;;22.46;31.71;101324.47;16142924;19;130311;-50
2022/05/15 16:39:05;;;;;;;9.63;2.60;;;;;;;22.52;31.88;101303.91;16144794;19;130037;-48
2022/05/15 16:44:27;;;;;;;9.57;2.85;;;;;;;22.57;31.77;101301.16;16143619;19;130689;-50
2022/05/15 16:49:49;;;;;;;10.63;2.55;;;;;;;22.61;31.36;101296.75;16141342;19;129732;-46
2022/05/15 16:55:11;;;;;;;10.77;2.40;;;;;;;22.63;31.91;101291.75;16137782;19;129656;-52
2022/05/15 17:00:33;;;;;;;5.93;2.30;;;;;;;22.66;31.71;101282.81;16142434;19;129358;-50
2022/05/15 17:05:56;;;;;;;26.83;2.30;;;;;;;22.69;31.82;101285.09;16140040;19;129605;-51
2022/05/15 17:11:19;;;;;;;15.68;2.10;;;;;;;22.75;32.18;101277.59;16139799;19;129128;-48
2022/05/15 17:16:41;;;;;;;13.45;2.38;;;;;;;22.79;32.18;101266.75;16139876;19;128871;-51
2022/05/15 17:22:03;;;;;;;10.02;1.90;;;;;;;22.82;32.14;101269.00;16135227;19;130554;-53
2022/05/15 17:27:25;;;;;;;19.00;3.15;;;;;;;22.84;31.89;101258.44;16139673;19;130575;-51
2022/05/15 17:38:30;;;;;;;7.55;2.28;;;;;;;22.80;31.70;101241.41;16140382;19;130763;-52
2022/05/15 17:43:54;;;;;;;8.93;1.90;;;;;;;22.73;32.18;101238.84;16129654;19;130158;-52
2022/05/15 17:49:16;;;;;;;13.15;2.10;;;;;;;22.71;32.30;101231.81;16135510;19;130690;-52
2022/05/15 17:54:39;;;;;;;10.82;2.00;;;;;;;22.67;32.48;101227.91;16131171;19;130453;-49
2022/05/15 18:00:04;;;;;;;5.72;1.95;;;;;;;22.64;32.67;101222.84;16130058;19;130377;-58
2022/05/15 18:05:29;;;;;;;2.93;1.43;;;;;;;22.60;32.22;101216.97;16132411;19;129495;-60
2022/05/15 18:10:51;;;;;;;12.65;1.95;;;;;;;22.57;32.50;101215.56;16130871;19;130784;-63
2022/05/15 18:16:13;;;;;;;4.03;1.25;;;;;;;22.53;32.33;101213.56;16128547;19;130658;-52
2022/05/15 18:21:36;;;;;;;2.72;1.23;;;;;;;22.49;32.48;101223.56;16127003;19;130569;-52
2022/05/15 18:26:58;;;;;;;6.40;1.45;;;;;;;22.46;32.79;101215.75;16127825;19;129735;-66
2022/05/15 18:32:24;;;;;;;8.63;1.70;;;;;;;22.46;33.12;101221.31;16123315;19;130551;-57
2022/05/15 18:37:46;;;;;;;11.45;1.67;;;;;;;22.50;33.02;101228.06;16121125;19;129791;-55
2022/05/15 18:43:11;;;;;;;9.05;1.55;;;;;;;22.53;33.28;101221.91;16118589;19;130777;-59
2022/05/15 18:48:32;;;;;;;10.57;1.83;;;;;;;22.56;33.15;101224.19;16132128;19;130696;-55
2022/05/15 18:59:34;;;;;;;6.25;1.38;;;;;;;22.58;33.17;101241.50;16128729;19;129504;-52
2022/05/15 19:04:56;;;;;;;10.70;1.45;;;;;;;22.55;33.33;101230.88;16133727;19;129003;-50
2022/05/15 19:10:18;;;;;;;5.15;1.50;;;;;;;22.57;33.24;101234.22;16133507;19;131610;-51
2022/05/15 19:15:42;;;;;;;5.15;1.20;;;;;;;22.54;33.31;101235.63;16132219;19;130231;-50
2022/05/15 19:21:04;;;;;;;4.68;1.30;;;;;;;22.54;33.45;101229.19;16129226;19;130122;-49
2022/05/15 19:26:26;;;;;;;6.10;1.40;;;;;;;22.54;33.32;101241.19;16132289;19;129907;-48
2022/05/15 19:31:47;;;;;;;6.95;1.42;;;;;;;22.56;33.44;101249.28;16129779;19;129665;-53
2022/05/15 19:37:09;;;;;;;8.00;1.52;;;;;;;22.55;33.70;101267.09;16128681;19;131025;-49
2022/05/15 19:42:31;;;;;;;3.42;1.17;;;;;;;22.54;33.38;101268.22;16127885;19;129807;-53
2022/05/15 19:47:53;;;;;;;14.32;1.70;;;;;;;22.51;34.14;101274.34;16130403;19;131013;-50
2022/05/15 19:53:15;;;;;;;10.07;1.98;;;;;;;22.44;34.22;101275.38;16130493;19;128885;-46
2022/05/15 19:58:37;;;;;;;8.00;1.60;;;;;;;22.40;34.09;101277.00;16131165;19;129573;-50
2022/05/15 20:03:59;;;;;;;7.05;1.38;;;;;;;22.38;34.33;101279.25;16125172;19;130333;-48
2022/05/15 20:15:04;;;;;;;7.68;1.35;;;;;;;22.30;34.14;101292.81;16145749;19;129523;-49
2022/05/15 20:20:26;;;;;;;3.53;1.10;;;;;;;22.27;34.12;101286.66;16145975;19;130193;-51
2022/05/15 20:25:50;;;;;;;7.72;1.42;;;;;;;22.24;34.08;101292.72;16145671;19;129160;-51
2022/05/15 20:31:16;;;;;;;4.70;1.10;;;;;;;22.22;34.35;101294.09;16143887;19;129354;-49
2022/05/15 20:36:39;;;;;;;4.82;0.82;;;;;;;22.21;34.42;101298.00;16144247;19;130646;-48
2022/05/15 20:42:01;;;;;;;3.15;0.90;;;;;;;22.18;34.06;101301.28;16140103;19;130607;-47
2022/05/15 20:47:24;;;;;;;2.30;0.80;;;;;;;22.17;34.30;101302.38;16139520;19;130166;-50
2022/05/15 20:52:45;;;;;;;4.10;0.80;;;;;;;22.15;34.42;101296.25;16133862;19;129261;-51
2022/05/15 20:58:08;;;;;;;2.42;0.70;;;;;;;22.14;34.29;101298.16;16129415;19;129424;-49
2022/05/15 21:03:30;;;;;;;6.80;0.90;;;;;;;22.11;34.36;101299.53;16128816;19;129351;-50
2022/05/15 21:08:52;;;;;;;2.75;0.60;;;;;;;22.11;34.49;101282.81;16137918;19;129238;-51
2022/05/15 21:14:14;;;;;;;3.30;0.80;;;;;;;22.10;34.07;101281.13;16143538;19;129578;-48
2022/05/15 21:19:36;;;;;;;2.40;0.60;;;;;;;22.08;34.27;101280.56;16135927;19;129026;-53
2022/05/15 21:24:58;;;;;;;3.38;0.52;;;;;;;22.08;34.02;101274.97;16139496;19;129011;-50
2022/05/15 21:30:20;;;;;;;4.97;0.75;;;;;;;22.06;34.01;101282.75;16136550;19;129444;-50
2022/05/15 21:35:42;;;;;;;2.90;0.82;;;;;;;22.05;34.22;101272.72;16140381;19;130332;-49
2022/05/15 21:46:46;;;;;;;4.95;1.35;;;;;;;22.03;34.52;101249.84;16139052;19;130807;-50
2022/05/15 21:52:08;;;;;;;1.27;0.50;;;;;;;22.01;34.47;101242.84;16128011;19;131672;-50
2022/05/15 21:57:30;;;;;;;4.78;0.50;;;;;;;22.01;34.31;101237.28;16127819;19;130494;-49
2022/05/15 22:02:52;;;;;;;2.15;0.88;;;;;;;22.00;34.51;101227.25;16118247;19;130495;-51
2022/05/15 22:08:13;;;;;;;4.80;0.65;;;;;;;22.00;34.20;101228.09;16114403;19;130775;-53
2022/05/15 22:13:35;;;;;;;0.80;0.50;;;;;;;21.98;34.56;101221.94;16117022;19;129363;-49
2022/05/15 22:18:57;;;;;;;2.25;0.50;;;;;;;21.97;34.05;101223.03;16117568;19;130089;-47
2022/05/15 22:24:19;;;;;;;1.10;0.70;;;;;;;21.96;34.08;101229.72;16125781;19;130658;-49
2022/05/15 22:29:41;;;;;;;1.33;0.60;;;;;;;21.95;34.56;101226.09;16127377;19;130170;-51
2022/05/15 22:35:03;;;;;;;1.67;0.63;;;;;;;21.94;34.36;101227.19;16128330;19;129577;-49
2022/05/15 22:40:25;;;;;;;0.65;0.50;;;;;;;21.94;34.06;101224.41;16128664;19;130232;-50
2022/05/15 22:45:48;;;;;;;0.85;0.30;;;;;;;21.94;34.51;101226.34;16128489;19;131094;-48
2022/05/15 22:51:11;;;;;;;0.77;0.50;;;;;;;21.94;34.03;101226.34;16124604;19;129334;-54
2022/05/15 22:56:33;;;;;;;0.65;0.40;;;;;;;21.93;34.47;101227.44;16127539;19;130334;-51
2022/05/15 23:01:54;;;;;;;0.73;0.40;;;;;;;21.90;34.70;101220.47;16126640;19;130690;-51
2022/05/15 23:07:29;;;;;;;2.92;0.68;;;;;;;21.91;34.64;101224.09;16127746;19;129299;-49
2022/05/15 23:12:51;;;;;;;2.30;0.40;;;;;;;21.91;34.37;101218.53;16129301;19;129715;-50
2022/05/15 23:18:13;;;;;;;1.73;0.52;;;;;;;21.90;34.28;101208.50;16123528;19;129873;-49
2022/05/15 23:23:35;;;;;;;0.60;0.40;;;;;;;21.89;34.65;101201.25;16123451;19;130756;-50
2022/05/15 23:28:57;;;;;;;3.25;0.95;;;;;;;21.89;34.52;101190.09;16124743;19;129762;-48
2022/05/15 23:34:19;;;;;;;1.42;0.38;;;;;;;21.86;34.23;101185.88;16134280;19;129214;-50
2022/05/15 23:39:41;;;;;;;0.80;0.30;;;;;;;21.87;34.29;101186.72;16129810;19;130465;-49
2022/05/15 23:45:04;;;;;;;0.93;0.40;;;;;;;21.87;34.70;101186.72;16135965;19;129877;-51
2022/05/15 23:50:25;;;;;;;1.80;0.40;;;;;;;21.86;34.77;101176.69;16141940;19;130926;-49
2022/05/15 23:55:47;;;;;;;1.92;0.30;;;;;;;21.86;34.25;101190.63;16142077;19;130575;-50
